createdAt,value
2022-08-24T00:00:31.813Z,48.05
2022-08-24T00:01:32.053Z,48.05
2022-08-24T00:02:32.395Z,48.05
2022-08-24T00:03:34.660Z,48.05
2022-08-24T00:04:32.894Z,48.14
2022-08-24T00:05:33.136Z,48.05
2022-08-24T00:06:33.374Z,48.05
2022-08-24T00:07:33.625Z,48.14
2022-08-24T00:08:33.876Z,48.14
2022-08-24T00:09:34.125Z,48.05
2022-08-24T00:10:34.376Z,48.05
2022-08-24T00:11:34.614Z,48.14
2022-08-24T00:12:34.857Z,48.14
2022-08-24T00:13:36.894Z,48.14
2022-08-24T00:14:35.417Z,48.14
2022-08-24T00:15:35.659Z,48.14
2022-08-24T00:16:35.954Z,48.14
2022-08-24T00:17:36.188Z,48.14
2022-08-24T00:18:36.439Z,48.14
2022-08-24T00:19:36.691Z,48.14
2022-08-24T00:20:36.929Z,48.14
2022-08-24T00:21:37.169Z,48.14
2022-08-24T00:22:37.419Z,48.14
2022-08-24T00:23:37.659Z,48.14
2022-08-24T00:24:37.901Z,48.14
2022-08-24T00:25:39.091Z,48.14
2022-08-24T00:26:38.391Z,48.14
2022-08-24T00:27:38.642Z,48.14
2022-08-24T00:28:38.892Z,48.14
2022-08-24T00:29:39.151Z,48.14
2022-08-24T00:30:39.391Z,48.17
2022-08-24T00:31:39.692Z,48.14
2022-08-24T00:32:39.935Z,48.14
2022-08-24T00:33:40.173Z,48.14
2022-08-24T00:34:40.455Z,48.14
2022-08-24T00:35:41.692Z,48.14
2022-08-24T00:36:40.994Z,48.14
2022-08-24T00:37:41.234Z,48.25
2022-08-24T00:38:41.475Z,48.14
2022-08-24T00:39:45.770Z,48.27
2022-08-24T00:40:41.993Z,48.14
2022-08-24T00:41:42.229Z,48.25
2022-08-24T00:42:42.466Z,48.25
2022-08-24T00:43:42.707Z,48.27
2022-08-24T00:44:42.957Z,48.27
2022-08-24T00:45:43.277Z,48.25
2022-08-24T00:46:43.557Z,48.27
2022-08-24T00:47:47.670Z,48.27
2022-08-24T00:48:44.068Z,48.27
2022-08-24T00:49:44.309Z,48.27
2022-08-24T00:50:44.556Z,48.27
2022-08-24T00:51:44.789Z,48.27
2022-08-24T00:52:45.030Z,48.27
2022-08-24T00:53:45.270Z,48.27
2022-08-24T00:54:46.515Z,48.27
2022-08-24T00:55:45.752Z,48.27
2022-08-24T00:56:45.981Z,48.27
2022-08-24T00:57:46.231Z,48.27
2022-08-24T00:58:46.471Z,48.27
2022-08-24T00:59:47.704Z,48.27
2022-08-24T01:00:48.595Z,48.27
2022-08-24T01:01:47.645Z,48.27
2022-08-24T01:02:47.573Z,48.27
2022-08-24T01:03:47.824Z,48.37
2022-08-24T01:04:48.077Z,48.37
2022-08-24T01:05:48.313Z,48.37
2022-08-24T01:06:48.554Z,48.37
2022-08-24T01:07:48.794Z,48.37
2022-08-24T01:08:49.045Z,48.37
2022-08-24T01:09:50.285Z,48.37
2022-08-24T01:10:49.583Z,48.37
2022-08-24T01:11:49.827Z,48.37
2022-08-24T01:12:59.917Z,48.37
2022-08-24T01:13:51.416Z,48.37
2022-08-24T01:14:50.716Z,48.37
2022-08-24T01:15:50.996Z,48.37
2022-08-24T01:16:51.228Z,48.37
2022-08-24T01:17:51.477Z,48.37
2022-08-24T01:18:51.721Z,48.37
2022-08-24T01:19:51.966Z,48.37
2022-08-24T01:20:52.209Z,48.37
2022-08-24T01:21:52.459Z,48.37
2022-08-24T01:22:52.699Z,48.37
2022-08-24T01:23:52.939Z,48.37
2022-08-24T01:24:53.192Z,48.37
2022-08-24T01:25:53.431Z,48.37
2022-08-24T01:26:53.681Z,48.37
2022-08-24T01:27:53.922Z,48.37
2022-08-24T01:28:54.161Z,48.47
2022-08-24T01:29:54.412Z,48.47
2022-08-24T01:30:54.691Z,48.47
2022-08-24T01:31:54.975Z,48.37
2022-08-24T01:32:55.203Z,48.47
2022-08-24T01:33:55.443Z,48.47
2022-08-24T01:34:55.696Z,48.47
2022-08-24T01:35:55.924Z,48.47
2022-08-24T01:36:56.177Z,48.47
2022-08-24T01:37:56.468Z,48.47
2022-08-24T01:38:56.694Z,48.47
2022-08-24T01:39:56.958Z,48.47
2022-08-24T01:40:57.275Z,48.47
2022-08-24T01:41:57.484Z,48.47
2022-08-24T01:42:57.736Z,48.47
2022-08-24T01:43:57.977Z,48.47
2022-08-24T01:44:58.227Z,48.47
2022-08-24T01:45:58.474Z,48.47
2022-08-24T01:46:58.762Z,48.47
2022-08-24T01:47:59.028Z,48.47
2022-08-24T01:48:59.281Z,48.47
2022-08-24T01:49:59.508Z,48.47
2022-08-24T01:50:59.749Z,48.47
2022-08-24T01:51:59.996Z,48.47
2022-08-24T01:53:07.291Z,48.47
2022-08-24T01:54:01.515Z,48.47
2022-08-24T01:55:00.720Z,48.57
2022-08-24T01:56:00.961Z,48.57
2022-08-24T01:57:01.210Z,48.57
2022-08-24T01:58:01.450Z,48.57
2022-08-24T01:59:01.680Z,48.57
2022-08-24T02:00:01.938Z,48.57
2022-08-24T02:01:02.172Z,48.57
2022-08-24T02:02:02.455Z,48.57
2022-08-24T02:03:03.006Z,48.57
2022-08-24T02:04:02.982Z,48.57
2022-08-24T02:05:03.233Z,48.57
2022-08-24T02:06:03.473Z,48.57
2022-08-24T02:07:03.717Z,48.57
2022-08-24T02:08:04.038Z,48.57
2022-08-24T02:09:04.274Z,48.57
2022-08-24T02:10:04.525Z,48.57
2022-08-24T02:11:04.765Z,48.57
2022-08-24T02:12:05.013Z,48.57
2022-08-24T02:13:05.440Z,48.66
2022-08-24T02:14:05.907Z,48.66
2022-08-24T02:15:05.776Z,48.66
2022-08-24T02:16:06.053Z,48.66
2022-08-24T02:17:06.297Z,48.66
2022-08-24T02:18:06.538Z,48.66
2022-08-24T02:19:07.768Z,48.66
2022-08-24T02:20:07.069Z,48.66
2022-08-24T02:21:07.309Z,48.66
2022-08-24T02:22:07.559Z,48.66
2022-08-24T02:23:07.797Z,48.66
2022-08-24T02:24:08.040Z,48.66
2022-08-24T02:25:08.278Z,48.66
2022-08-24T02:26:08.560Z,48.66
2022-08-24T02:27:08.791Z,48.66
2022-08-24T02:28:09.040Z,48.66
2022-08-24T02:29:09.281Z,48.66
2022-08-24T02:30:09.532Z,48.77
2022-08-24T02:31:09.807Z,48.77
2022-08-24T02:32:10.042Z,48.77
2022-08-24T02:33:10.282Z,48.77
2022-08-24T02:34:10.542Z,48.77
2022-08-24T02:35:10.784Z,48.77
2022-08-24T02:36:25.182Z,48.77
2022-08-24T02:37:12.269Z,48.77
2022-08-24T02:38:11.572Z,48.77
2022-08-24T02:39:11.862Z,48.77
2022-08-24T02:40:12.153Z,48.77
2022-08-24T02:41:12.406Z,48.77
2022-08-24T02:42:12.745Z,48.86
2022-08-24T02:43:12.986Z,48.86
2022-08-24T02:44:13.226Z,48.77
2022-08-24T02:45:13.476Z,48.77
2022-08-24T02:46:13.976Z,48.86
2022-08-24T02:47:14.047Z,48.86
2022-08-24T02:48:14.288Z,48.86
2022-08-24T02:49:14.536Z,48.86
2022-08-24T02:50:14.779Z,48.86
2022-08-24T02:51:15.018Z,48.86
2022-08-24T02:52:15.269Z,48.86
2022-08-24T02:53:15.513Z,48.86
2022-08-24T02:54:15.751Z,48.86
2022-08-24T02:55:15.993Z,48.86
2022-08-24T02:56:16.290Z,48.86
2022-08-24T02:57:16.531Z,48.86
2022-08-24T02:58:16.771Z,48.86
2022-08-24T02:59:17.011Z,48.86
2022-08-24T03:00:17.261Z,48.86
2022-08-24T03:01:17.923Z,48.86
2022-08-24T03:02:18.782Z,48.86
2022-08-24T03:03:17.963Z,48.86
2022-08-24T03:04:18.207Z,48.86
2022-08-24T03:05:18.453Z,48.86
2022-08-24T03:06:18.702Z,48.86
2022-08-24T03:07:18.935Z,48.96
2022-08-24T03:08:19.181Z,48.86
2022-08-24T03:09:19.424Z,48.86
2022-08-24T03:10:19.682Z,48.86
2022-08-24T03:11:19.915Z,48.89
2022-08-24T03:12:20.163Z,48.96
2022-08-24T03:13:20.404Z,48.96
2022-08-24T03:14:20.652Z,48.96
2022-08-24T03:15:20.886Z,48.96
2022-08-24T03:16:21.137Z,48.99
2022-08-24T03:17:21.388Z,48.96
2022-08-24T03:18:24.604Z,48.96
2022-08-24T03:19:21.867Z,48.96
2022-08-24T03:20:22.118Z,48.96
2022-08-24T03:21:22.358Z,48.96
2022-08-24T03:22:22.599Z,48.96
2022-08-24T03:23:22.839Z,48.99
2022-08-24T03:24:23.088Z,48.99
2022-08-24T03:25:23.330Z,48.99
2022-08-24T03:26:23.578Z,48.99
2022-08-24T03:27:23.810Z,48.99
2022-08-24T03:28:24.166Z,48.96
2022-08-24T03:29:24.341Z,48.99
2022-08-24T03:30:24.609Z,48.99
2022-08-24T03:31:24.883Z,48.99
2022-08-24T03:32:25.122Z,49.08
2022-08-24T03:33:25.362Z,49.08
2022-08-24T03:34:25.602Z,49.08
2022-08-24T03:35:25.854Z,49.08
2022-08-24T03:36:26.103Z,49.08
2022-08-24T03:37:26.342Z,49.08
2022-08-24T03:38:26.585Z,49.08
2022-08-24T03:39:26.835Z,49.08
2022-08-24T03:40:27.117Z,49.08
2022-08-24T03:41:27.405Z,49.08
2022-08-24T03:42:27.665Z,49.08
2022-08-24T03:43:27.896Z,49.08
2022-08-24T03:44:28.144Z,49.08
2022-08-24T03:45:28.384Z,49.08
2022-08-24T03:46:28.642Z,49.08
2022-08-24T03:47:28.866Z,49.08
2022-08-24T03:48:29.107Z,49.08
2022-08-24T03:49:29.347Z,49.08
2022-08-24T03:50:29.588Z,49.08
2022-08-24T03:51:30.360Z,49.08
2022-08-24T03:52:33.862Z,49.08
2022-08-24T03:53:30.499Z,49.08
2022-08-24T03:54:30.740Z,49.19
2022-08-24T03:55:30.980Z,49.08
2022-08-24T03:56:31.220Z,49.08
2022-08-24T03:57:31.460Z,49.08
2022-08-24T03:58:31.708Z,49.19
2022-08-24T03:59:31.983Z,49.19
2022-08-24T04:00:32.231Z,49.19
2022-08-24T04:01:32.512Z,49.19
2022-08-24T04:02:33.171Z,49.19
2022-08-24T04:03:32.990Z,49.19
2022-08-24T04:04:33.243Z,49.19
2022-08-24T04:05:35.061Z,49.19
2022-08-24T04:06:33.811Z,49.19
2022-08-24T04:07:34.054Z,49.19
2022-08-24T04:08:34.294Z,49.19
2022-08-24T04:09:34.545Z,49.19
2022-08-24T04:10:34.803Z,49.19
2022-08-24T04:11:37.467Z,49.19
2022-08-24T04:12:36.266Z,49.19
2022-08-24T04:13:35.506Z,49.19
2022-08-24T04:14:35.756Z,49.19
2022-08-24T04:15:36.000Z,49.19
2022-08-24T04:16:36.351Z,49.29
2022-08-24T04:17:36.596Z,49.19
2022-08-24T04:18:36.837Z,49.29
2022-08-24T04:19:37.077Z,49.29
2022-08-24T04:20:37.318Z,49.29
2022-08-24T04:21:37.578Z,49.29
2022-08-24T04:22:37.818Z,49.29
2022-08-24T04:23:47.741Z,49.29
2022-08-24T04:24:39.289Z,49.29
2022-08-24T04:25:38.701Z,49.29
2022-08-24T04:26:45.570Z,49.29
2022-08-24T04:27:40.147Z,49.29
2022-08-24T04:28:39.449Z,49.29
2022-08-24T04:29:39.681Z,49.29
2022-08-24T04:30:39.931Z,49.29
2022-08-24T04:31:40.244Z,49.29
2022-08-24T04:32:40.483Z,49.29
2022-08-24T04:33:40.723Z,49.29
2022-08-24T04:34:40.991Z,49.29
2022-08-24T04:35:41.244Z,49.29
2022-08-24T04:36:41.496Z,49.29
2022-08-24T04:37:41.724Z,49.29
2022-08-24T04:38:41.971Z,49.29
2022-08-24T04:39:42.320Z,49.29
2022-08-24T04:40:42.534Z,49.29
2022-08-24T04:41:42.820Z,49.38
2022-08-24T04:42:43.046Z,49.38
2022-08-24T04:43:43.286Z,49.38
2022-08-24T04:44:43.534Z,49.38
2022-08-24T04:45:43.807Z,49.38
2022-08-24T04:46:44.045Z,49.38
2022-08-24T04:47:44.278Z,49.38
2022-08-24T04:48:44.527Z,49.38
2022-08-24T04:49:44.765Z,49.38
2022-08-24T04:50:45.010Z,49.38
2022-08-24T04:51:45.258Z,49.38
2022-08-24T04:52:45.488Z,49.38
2022-08-24T04:53:45.739Z,49.38
2022-08-24T04:54:45.979Z,49.38
2022-08-24T04:55:46.238Z,49.38
2022-08-24T04:56:46.480Z,49.38
2022-08-24T04:57:46.720Z,49.38
2022-08-24T04:58:47.914Z,49.38
2022-08-24T04:59:47.211Z,49.38
2022-08-24T05:00:47.476Z,49.38
2022-08-24T05:01:47.744Z,49.38
2022-08-24T05:02:48.027Z,49.38
2022-08-24T05:03:48.324Z,49.38
2022-08-24T05:04:48.573Z,49.38
2022-08-24T05:05:48.823Z,49.38
2022-08-24T05:06:53.128Z,49.38
2022-08-24T05:07:53.486Z,49.49
2022-08-24T05:08:50.584Z,49.49
2022-08-24T05:09:52.517Z,49.49
2022-08-24T05:10:50.175Z,49.38
2022-08-24T05:11:50.435Z,49.49
2022-08-24T05:12:50.698Z,49.49
2022-08-24T05:13:50.946Z,49.38
2022-08-24T05:14:51.206Z,49.38
2022-08-24T05:15:51.496Z,49.38
2022-08-24T05:16:53.050Z,49.38
2022-08-24T05:17:52.095Z,49.38
2022-08-24T05:18:52.350Z,49.38
2022-08-24T05:19:52.606Z,49.38
2022-08-24T05:20:52.862Z,49.49
2022-08-24T05:21:53.118Z,49.49
2022-08-24T05:22:55.959Z,49.49
2022-08-24T05:23:53.698Z,49.49
2022-08-24T05:24:53.950Z,49.49
2022-08-24T05:25:54.280Z,49.49
2022-08-24T05:26:54.530Z,49.58
2022-08-24T05:27:54.790Z,49.58
2022-08-24T05:28:55.049Z,49.58
2022-08-24T05:29:55.301Z,49.58
2022-08-24T05:30:55.550Z,49.58
2022-08-24T05:31:55.822Z,49.68
2022-08-24T05:32:56.072Z,49.68
2022-08-24T05:33:56.333Z,49.78
2022-08-24T05:34:56.591Z,49.78
2022-08-24T05:35:56.843Z,49.78
2022-08-24T05:36:57.101Z,49.78
2022-08-24T05:37:57.364Z,49.78
2022-08-24T05:38:57.624Z,49.88
2022-08-24T05:39:57.964Z,49.88
2022-08-24T05:40:58.185Z,49.88
2022-08-24T05:41:58.445Z,49.88
2022-08-24T05:42:58.707Z,49.98
2022-08-24T05:43:58.958Z,49.98
2022-08-24T05:44:59.214Z,50.08
2022-08-24T05:45:59.468Z,50.08
2022-08-24T05:46:59.809Z,50.08
2022-08-24T05:48:00.046Z,50.08
2022-08-24T05:49:00.300Z,50.08
2022-08-24T05:50:00.558Z,50.08
2022-08-24T05:51:00.790Z,50.18
2022-08-24T05:52:01.049Z,50.18
2022-08-24T05:53:01.326Z,50.28
2022-08-24T05:54:01.580Z,50.28
2022-08-24T05:55:01.841Z,50.18
2022-08-24T05:56:02.101Z,50.28
2022-08-24T05:57:02.360Z,50.28
2022-08-24T05:58:02.620Z,50.38
2022-08-24T05:59:02.881Z,50.38
2022-08-24T06:00:03.141Z,50.38
2022-08-24T06:01:03.402Z,50.48
2022-08-24T06:02:03.729Z,50.58
2022-08-24T06:03:04.153Z,50.58
2022-08-24T06:04:04.278Z,50.58
2022-08-24T06:05:04.543Z,50.68
2022-08-24T06:06:04.805Z,50.68
2022-08-24T06:07:05.064Z,50.78
2022-08-24T06:08:05.323Z,50.88
2022-08-24T06:09:05.575Z,50.88
2022-08-24T06:10:32.956Z,50.88
2022-08-24T06:11:07.075Z,50.88
2022-08-24T06:12:06.317Z,50.98
2022-08-24T06:13:06.606Z,50.98
2022-08-24T06:14:07.641Z,50.98
2022-08-24T06:15:07.106Z,50.98
2022-08-24T06:16:20.945Z,50.98
2022-08-24T06:17:08.659Z,50.98
2022-08-24T06:18:07.952Z,50.98
2022-08-24T06:19:08.241Z,50.98
2022-08-24T06:20:08.482Z,50.98
2022-08-24T06:21:08.763Z,51.07
2022-08-24T06:22:09.003Z,50.98
2022-08-24T06:23:09.259Z,50.98
2022-08-24T06:24:09.519Z,50.98
2022-08-24T06:25:09.775Z,50.98
2022-08-24T06:26:14.691Z,50.98
2022-08-24T06:27:11.271Z,50.98
2022-08-24T06:28:10.602Z,50.98
2022-08-24T06:29:10.864Z,50.98
2022-08-24T06:30:11.121Z,50.98
2022-08-24T06:31:11.452Z,50.98
2022-08-24T06:32:11.735Z,50.98
2022-08-24T06:33:11.982Z,50.98
2022-08-24T06:34:12.263Z,50.88
2022-08-24T06:35:12.523Z,50.88
2022-08-24T06:36:12.793Z,50.88
2022-08-24T06:37:13.041Z,50.88
2022-08-24T06:38:13.305Z,50.88
2022-08-24T06:39:13.555Z,50.88
2022-08-24T06:40:13.843Z,50.88
2022-08-24T06:41:14.114Z,50.88
2022-08-24T06:42:14.386Z,50.78
2022-08-24T06:43:14.636Z,50.78
2022-08-24T06:44:14.898Z,50.78
2022-08-24T06:45:15.155Z,50.78
2022-08-24T06:46:15.453Z,50.78
2022-08-24T06:47:15.718Z,50.78
2022-08-24T06:48:15.979Z,50.78
2022-08-24T06:49:16.268Z,50.78
2022-08-24T06:50:16.519Z,50.78
2022-08-24T06:51:16.796Z,50.78
2022-08-24T06:52:17.069Z,50.68
2022-08-24T06:53:17.341Z,50.68
2022-08-24T06:54:17.600Z,50.68
2022-08-24T06:55:17.860Z,50.68
2022-08-24T06:56:18.139Z,50.68
2022-08-24T06:57:18.391Z,50.68
2022-08-24T06:58:18.651Z,50.78
2022-08-24T06:59:18.911Z,50.78
2022-08-24T07:00:19.171Z,50.78
2022-08-24T07:01:19.512Z,50.68
2022-08-24T07:02:19.752Z,50.68
2022-08-24T07:03:20.078Z,50.78
2022-08-24T07:04:20.333Z,50.68
2022-08-24T07:05:20.594Z,50.88
2022-08-24T07:06:20.855Z,50.78
2022-08-24T07:07:21.127Z,50.75
2022-08-24T07:08:21.404Z,50.75
2022-08-24T07:09:21.683Z,50.65
2022-08-24T07:10:21.955Z,50.56
2022-08-24T07:11:22.291Z,50.45
2022-08-24T07:12:22.556Z,50.45
2022-08-24T07:13:22.826Z,50.45
2022-08-24T07:14:23.097Z,50.35
2022-08-24T07:15:23.372Z,50.45
2022-08-24T07:16:23.689Z,50.56
2022-08-24T07:17:23.968Z,50.56
2022-08-24T07:18:24.253Z,50.56
2022-08-24T07:19:24.508Z,50.65
2022-08-24T07:20:24.799Z,50.45
2022-08-24T07:21:25.079Z,50.45
2022-08-24T07:22:25.360Z,50.26
2022-08-24T07:23:25.631Z,50.35
2022-08-24T07:24:26.870Z,50.45
2022-08-24T07:25:26.210Z,50.16
2022-08-24T07:26:26.481Z,50.16
2022-08-24T07:27:26.759Z,50.26
2022-08-24T07:28:27.674Z,50.16
2022-08-24T07:29:47.263Z,49.96
2022-08-24T07:30:28.647Z,49.96
2022-08-24T07:31:30.958Z,49.93
2022-08-24T07:32:29.144Z,49.84
2022-08-24T07:33:28.471Z,49.93
2022-08-24T07:34:28.743Z,49.74
2022-08-24T07:35:29.015Z,49.63
2022-08-24T07:36:29.324Z,49.54
2022-08-24T07:37:40.235Z,49.54
2022-08-24T07:38:30.855Z,49.63
2022-08-24T07:39:30.186Z,49.44
2022-08-24T07:40:30.506Z,49.34
2022-08-24T07:41:43.550Z,49.24
2022-08-24T07:42:32.301Z,49.14
2022-08-24T07:43:31.316Z,49.04
2022-08-24T07:44:31.594Z,49.04
2022-08-24T07:45:31.858Z,49.04
2022-08-24T07:46:32.187Z,48.94
2022-08-24T07:47:39.515Z,48.92
2022-08-24T07:48:33.686Z,48.92
2022-08-24T07:49:37.275Z,48.62
2022-08-24T07:50:34.298Z,48.62
2022-08-24T07:52:33.731Z,48.52
2022-08-24T07:53:52.589Z,48.42
2022-08-24T07:54:35.284Z,48.52
2022-08-24T07:55:34.611Z,48.32
2022-08-24T07:56:35.859Z,48.22
2022-08-24T07:57:35.191Z,48.13
2022-08-24T07:58:35.471Z,47.92
2022-08-24T07:59:35.744Z,48.02
2022-08-24T08:00:36.020Z,48.13
2022-08-24T08:01:36.325Z,47.63
2022-08-24T08:02:36.726Z,47.61
2022-08-24T08:03:36.943Z,47.50
2022-08-24T08:04:37.223Z,47.41
2022-08-24T08:05:37.493Z,47.80
2022-08-24T08:06:37.792Z,47.41
2022-08-24T08:07:38.095Z,47.41
2022-08-24T08:08:38.372Z,47.31
2022-08-24T08:09:38.657Z,47.31
2022-08-24T08:10:38.925Z,47.21
2022-08-24T08:11:39.206Z,47.41
2022-08-24T08:12:39.466Z,47.41
2022-08-24T08:14:40.077Z,47.31
2022-08-24T08:15:40.367Z,47.21
2022-08-24T08:16:40.647Z,47.01
2022-08-24T08:17:40.907Z,47.21
2022-08-24T08:18:41.187Z,47.21
2022-08-24T08:19:41.459Z,47.01
2022-08-24T08:20:41.730Z,47.01
2022-08-24T08:21:42.009Z,47.21
2022-08-24T08:22:42.298Z,47.11
2022-08-24T08:23:42.569Z,47.09
2022-08-24T08:24:42.812Z,47.09
2022-08-24T08:25:47.249Z,46.98
2022-08-24T08:26:43.390Z,46.98
2022-08-24T08:28:43.918Z,46.98
2022-08-24T08:29:44.189Z,46.89
2022-08-24T08:30:44.485Z,46.89
2022-08-24T08:31:44.744Z,46.79
2022-08-24T08:32:45.012Z,46.69
2022-08-24T08:33:45.283Z,46.67
2022-08-24T08:34:45.561Z,46.67
2022-08-24T08:35:45.835Z,46.77
2022-08-24T08:36:46.112Z,46.57
2022-08-24T08:37:46.394Z,46.57
2022-08-24T08:38:46.665Z,46.67
2022-08-24T08:39:47.023Z,46.67
2022-08-24T08:40:47.265Z,46.67
2022-08-24T08:41:47.545Z,46.67
2022-08-24T08:42:47.825Z,46.67
2022-08-24T08:43:48.107Z,46.77
2022-08-24T08:44:48.384Z,46.67
2022-08-24T08:45:48.708Z,46.67
2022-08-24T08:46:48.979Z,46.67
2022-08-24T08:47:49.293Z,46.67
2022-08-24T08:48:49.558Z,46.74
2022-08-24T08:49:49.828Z,46.74
2022-08-24T08:50:50.116Z,46.74
2022-08-24T08:51:50.387Z,46.74
2022-08-24T08:52:50.657Z,46.84
2022-08-24T08:53:50.929Z,46.84
2022-08-24T08:54:51.209Z,46.84
2022-08-24T08:55:51.647Z,46.74
2022-08-24T08:56:54.933Z,46.84
2022-08-24T08:57:53.010Z,46.94
2022-08-24T08:58:57.076Z,46.84
2022-08-24T08:59:53.600Z,47.04
2022-08-24T09:00:52.951Z,47.04
2022-08-24T09:01:53.316Z,47.04
2022-08-24T09:02:53.473Z,47.04
2022-08-24T09:03:53.835Z,47.04
2022-08-24T09:04:54.434Z,46.94
2022-08-24T09:06:54.783Z,47.04
2022-08-24T09:07:55.063Z,47.04
2022-08-24T09:08:55.335Z,47.14
2022-08-24T09:09:55.614Z,47.02
2022-08-24T09:10:55.892Z,46.92
2022-08-24T09:11:56.167Z,46.92
2022-08-24T09:12:56.437Z,46.92
2022-08-24T09:13:56.705Z,46.82
2022-08-24T09:14:56.976Z,46.82
2022-08-24T09:15:57.602Z,46.82
2022-08-24T09:16:57.566Z,46.82
2022-08-24T09:17:57.902Z,46.82
2022-08-24T09:18:58.146Z,46.72
2022-08-24T09:19:58.439Z,46.72
2022-08-24T09:20:58.716Z,46.72
2022-08-24T09:21:58.989Z,46.72
2022-08-24T09:22:59.258Z,46.82
2022-08-24T09:23:59.528Z,46.72
2022-08-24T09:24:59.809Z,46.92
2022-08-24T09:26:00.080Z,47.02
2022-08-24T09:27:00.359Z,47.02
2022-08-24T09:28:00.737Z,46.82
2022-08-24T09:29:00.960Z,46.92
2022-08-24T09:30:01.250Z,46.72
2022-08-24T09:31:01.579Z,46.82
2022-08-24T09:32:01.861Z,46.80
2022-08-24T09:33:02.094Z,46.92
2022-08-24T09:34:02.363Z,47.00
2022-08-24T09:35:02.679Z,47.09
2022-08-24T09:36:02.932Z,47.09
2022-08-24T09:37:03.213Z,47.00
2022-08-24T09:38:03.484Z,47.00
2022-08-24T09:39:03.753Z,47.19
2022-08-24T09:40:04.073Z,47.00
2022-08-24T09:41:04.347Z,47.00
2022-08-24T09:42:04.623Z,47.00
2022-08-24T09:43:05.172Z,47.09
2022-08-24T09:44:05.213Z,47.09
2022-08-24T09:45:05.486Z,47.09
2022-08-24T09:46:05.856Z,47.09
2022-08-24T09:47:06.136Z,47.19
2022-08-24T09:48:06.399Z,47.19
2022-08-24T09:49:09.127Z,47.19
2022-08-24T09:50:06.896Z,47.09
2022-08-24T09:51:07.217Z,47.19
2022-08-24T09:52:07.498Z,47.09
2022-08-24T09:53:07.767Z,47.29
2022-08-24T09:54:08.041Z,47.69
2022-08-24T09:55:08.372Z,47.69
2022-08-24T09:56:08.648Z,47.78
2022-08-24T09:57:12.522Z,48.08
2022-08-24T09:58:09.310Z,47.99
2022-08-24T09:59:09.549Z,47.89
2022-08-24T10:00:09.829Z,48.38
2022-08-24T10:01:10.198Z,48.40
2022-08-24T10:02:10.422Z,48.30
2022-08-24T10:03:10.722Z,48.30
2022-08-24T10:04:11.031Z,48.21
2022-08-24T10:05:11.417Z,48.21
2022-08-24T10:06:11.714Z,48.21
2022-08-24T10:07:11.843Z,48.21
2022-08-24T10:08:12.133Z,48.30
2022-08-24T10:09:12.464Z,48.21
2022-08-24T10:10:12.735Z,48.21
2022-08-24T10:11:13.020Z,48.11
2022-08-24T10:12:13.293Z,48.11
2022-08-24T10:13:13.564Z,48.11
2022-08-24T10:14:13.869Z,48.11
2022-08-24T10:15:14.136Z,48.01
2022-08-24T10:16:14.461Z,48.01
2022-08-24T10:17:14.715Z,47.91
2022-08-24T10:18:14.986Z,47.91
2022-08-24T10:19:15.257Z,47.81
2022-08-24T10:20:15.550Z,47.81
2022-08-24T10:21:15.857Z,47.91
2022-08-24T10:22:16.128Z,47.91
2022-08-24T10:23:16.407Z,47.81
2022-08-24T10:24:16.688Z,47.91
2022-08-24T10:25:16.969Z,48.01
2022-08-24T10:26:17.260Z,48.01
2022-08-24T10:27:17.529Z,47.71
2022-08-24T10:28:17.800Z,47.61
2022-08-24T10:29:18.072Z,47.71
2022-08-24T10:30:23.913Z,47.71
2022-08-24T10:31:19.683Z,47.81
2022-08-24T10:32:18.881Z,47.81
2022-08-24T10:33:19.168Z,47.81
2022-08-24T10:34:19.421Z,47.71
2022-08-24T10:35:19.683Z,47.59
2022-08-24T10:36:21.086Z,47.39
2022-08-24T10:37:20.202Z,47.49
2022-08-24T10:38:20.467Z,47.09
2022-08-24T10:39:20.725Z,46.89
2022-08-24T10:40:21.029Z,46.70
2022-08-24T10:41:21.295Z,46.40
2022-08-24T10:42:21.564Z,45.61
2022-08-24T10:43:23.965Z,45.34
2022-08-24T10:44:22.064Z,45.43
2022-08-24T10:45:22.393Z,45.34
2022-08-24T10:46:22.626Z,44.94
2022-08-24T10:47:22.906Z,44.74
2022-08-24T10:48:23.155Z,45.04
2022-08-24T10:49:23.408Z,44.84
2022-08-24T10:50:23.667Z,44.74
2022-08-24T10:51:24.908Z,44.45
2022-08-24T10:52:24.225Z,44.67
2022-08-24T10:53:24.477Z,44.86
2022-08-24T10:54:24.738Z,44.76
2022-08-24T10:55:24.998Z,45.06
2022-08-24T10:56:25.257Z,45.16
2022-08-24T10:57:25.529Z,45.16
2022-08-24T10:58:25.799Z,44.46
2022-08-24T10:59:26.101Z,43.97
2022-08-24T11:00:26.367Z,43.97
2022-08-24T11:01:26.779Z,44.27
2022-08-24T11:02:26.955Z,44.17
2022-08-24T11:03:28.661Z,43.97
2022-08-24T11:04:27.503Z,43.97
2022-08-24T11:05:27.752Z,44.37
2022-08-24T11:06:28.219Z,44.46
2022-08-24T11:07:28.312Z,44.56
2022-08-24T11:08:28.573Z,44.67
2022-08-24T11:09:28.822Z,44.64
2022-08-24T11:10:29.084Z,43.95
2022-08-24T11:11:29.341Z,43.97
2022-08-24T11:12:29.601Z,43.85
2022-08-24T11:13:29.855Z,43.77
2022-08-24T11:14:30.114Z,43.77
2022-08-24T11:15:30.365Z,43.67
2022-08-24T11:16:30.712Z,43.77
2022-08-24T11:17:30.946Z,43.67
2022-08-24T11:18:31.215Z,43.77
2022-08-24T11:19:31.493Z,43.77
2022-08-24T11:20:31.805Z,43.97
2022-08-24T11:21:32.036Z,43.67
2022-08-24T11:22:32.298Z,43.77
2022-08-24T11:23:32.638Z,43.87
2022-08-24T11:24:32.887Z,44.07
2022-08-24T11:25:33.141Z,43.87
2022-08-24T11:26:33.415Z,43.97
2022-08-24T11:27:33.678Z,44.07
2022-08-24T11:28:33.942Z,44.17
2022-08-24T11:29:34.206Z,44.07
2022-08-24T11:30:34.480Z,44.17
2022-08-24T11:31:35.911Z,44.37
2022-08-24T11:32:34.981Z,44.46
2022-08-24T11:33:35.301Z,44.56
2022-08-24T11:34:35.572Z,44.56
2022-08-24T11:35:35.821Z,44.56
2022-08-24T11:36:36.082Z,44.67
2022-08-24T11:37:36.341Z,44.76
2022-08-24T11:38:36.604Z,44.86
2022-08-24T11:39:37.028Z,44.96
2022-08-24T11:40:37.131Z,45.06
2022-08-24T11:41:37.383Z,45.16
2022-08-24T11:42:37.655Z,45.16
2022-08-24T11:43:37.913Z,45.16
2022-08-24T11:44:38.224Z,45.36
2022-08-24T11:45:38.482Z,45.36
2022-08-24T11:46:38.766Z,45.45
2022-08-24T11:47:39.033Z,45.26
2022-08-24T11:48:39.286Z,45.36
2022-08-24T11:49:39.566Z,45.36
2022-08-24T11:50:39.857Z,45.45
2022-08-24T11:51:40.146Z,45.56
2022-08-24T11:52:40.406Z,45.56
2022-08-24T11:54:41.158Z,45.65
2022-08-24T11:55:47.323Z,45.65
2022-08-24T11:56:42.435Z,45.65
2022-08-24T11:57:48.296Z,45.65
2022-08-24T11:58:42.948Z,45.56
2022-08-24T11:59:42.267Z,45.45
2022-08-24T12:00:42.530Z,45.56
2022-08-24T12:01:44.676Z,45.45
2022-08-24T12:02:43.100Z,45.56
2022-08-24T12:03:43.341Z,45.65
2022-08-24T12:04:43.600Z,45.65
2022-08-24T12:05:43.881Z,45.56
2022-08-24T12:06:44.201Z,45.43
2022-08-24T12:07:44.452Z,45.26
2022-08-24T12:08:45.690Z,45.36
2022-08-24T12:09:45.009Z,45.36
2022-08-24T12:10:45.262Z,45.26
2022-08-24T12:11:45.540Z,45.16
2022-08-24T12:12:45.836Z,45.16
2022-08-24T12:13:46.093Z,45.06
2022-08-24T12:14:46.370Z,44.86
2022-08-24T12:15:51.330Z,44.96
2022-08-24T12:16:47.951Z,44.96
2022-08-24T12:17:47.162Z,45.06
2022-08-24T12:18:47.446Z,45.06
2022-08-24T12:19:47.706Z,44.96
2022-08-24T12:20:48.325Z,44.96
2022-08-24T12:21:48.306Z,44.96
2022-08-24T12:22:48.565Z,44.96
2022-08-24T12:23:48.817Z,44.86
2022-08-24T12:24:49.088Z,44.86
2022-08-24T12:25:49.362Z,44.96
2022-08-24T12:26:49.645Z,45.16
2022-08-24T12:27:49.898Z,45.16
2022-08-24T12:28:53.766Z,45.16
2022-08-24T12:29:50.410Z,45.06
2022-08-24T12:30:50.659Z,45.26
2022-08-24T12:31:50.997Z,45.26
2022-08-24T12:32:51.250Z,45.56
2022-08-24T12:33:51.499Z,45.45
2022-08-24T12:34:51.762Z,45.36
2022-08-24T12:35:52.020Z,45.45
2022-08-24T12:36:52.281Z,45.45
2022-08-24T12:37:52.541Z,45.36
2022-08-24T12:38:52.801Z,45.36
2022-08-24T12:39:53.131Z,45.45
2022-08-24T12:40:53.368Z,45.45
2022-08-24T12:41:53.622Z,45.45
2022-08-24T12:42:53.883Z,45.36
2022-08-24T12:43:54.143Z,45.36
2022-08-24T12:44:54.403Z,45.45
2022-08-24T12:45:54.665Z,45.45
2022-08-24T12:46:54.945Z,45.45
2022-08-24T12:47:55.205Z,45.36
2022-08-24T12:48:55.464Z,45.36
2022-08-24T12:49:55.736Z,45.36
2022-08-24T12:50:55.985Z,45.36
2022-08-24T12:51:56.450Z,45.36
2022-08-24T12:52:56.477Z,45.36
2022-08-24T12:53:57.457Z,45.36
2022-08-24T12:54:57.036Z,45.36
2022-08-24T12:55:57.568Z,45.26
2022-08-24T12:56:57.577Z,45.36
2022-08-24T12:57:57.840Z,45.36
2022-08-24T12:58:58.098Z,45.26
2022-08-24T12:59:58.358Z,45.26
2022-08-24T13:01:01.658Z,45.36